Time;durP1;ratioP1;P1;durP2;ratioP2;P2;SDS_P1;SDS_P2;PMS_P1;PMS_P2;Temp;Humidity;BMP_temperature;BMP_pressure;BME280_temperature;BME280_humidity;BME280_pressure;Samples;Min_cycle;Max_cycle;Signal;HPM_P1;HPM_P2
2023/03/27 00:01:15;;;;;;;0.50;0.50;;;;;;;6.39;69.62;96220.13;4986230;28;20177;-58
2023/03/27 00:03:41;;;;;;;0.50;0.50;;;;;;;6.42;70.07;96208.41;4987298;28;20569;-55
2023/03/27 00:06:16;;;;;;;0.50;0.50;;;;;;;6.31;70.21;96221.16;4986497;28;20978;-58
2023/03/27 00:08:47;;;;;;;0.57;0.57;;;;;;;6.35;69.59;96208.28;4987595;28;20082;-58
2023/03/27 00:11:15;;;;;;;0.50;0.50;;;;;;;6.38;69.89;96213.06;4986110;28;20054;-59
2023/03/27 00:13:43;;;;;;;0.60;0.60;;;;;;;6.02;72.17;96197.03;4987641;28;20052;-59
2023/03/27 00:16:16;;;;;;;0.50;0.50;;;;;;;6.16;73.11;96200.06;4987239;28;20054;-58
2023/03/27 00:18:43;;;;;;;0.50;0.50;;;;;;;5.70;72.91;96126.81;4987303;28;20050;-57
2023/03/27 00:21:10;;;;;;;0.50;0.50;;;;;;;6.07;73.02;96186.50;4987350;28;20104;-55
2023/03/27 00:23:37;;;;;;;0.47;0.47;;;;;;;5.74;72.94;96122.19;4987498;28;20116;-56
2023/03/27 00:26:04;;;;;;;0.50;0.50;;;;;;;5.98;73.45;96154.91;4987210;28;20077;-56
2023/03/27 00:28:31;;;;;;;0.50;0.50;;;;;;;6.25;73.98;96186.88;4987260;28;20513;-57
2023/03/27 00:30:57;;;;;;;0.50;0.50;;;;;;;6.25;72.64;96175.06;4987212;28;20054;-56
2023/03/27 00:33:25;;;;;;;0.50;0.50;;;;;;;5.78;73.15;96088.16;4987198;28;20050;-58
2023/03/27 00:35:53;;;;;;;0.60;0.60;;;;;;;6.58;72.28;96189.06;4986764;28;20131;-58
2023/03/27 00:38:20;;;;;;;0.50;0.50;;;;;;;6.57;71.63;96177.28;4987213;28;20053;-57
2023/03/27 00:40:49;;;;;;;0.55;0.55;;;;;;;6.51;71.34;96167.72;4986892;28;20120;-55
2023/03/27 00:43:23;;;;;;;0.50;0.50;;;;;;;6.53;71.42;96176.41;4986987;28;20046;-59
2023/03/27 00:45:54;;;;;;;0.55;0.55;;;;;;;6.64;70.93;96176.59;4985250;28;20054;-60
2023/03/27 00:48:23;;;;;;;0.52;0.52;;;;;;;6.67;70.46;96176.66;4987277;28;20062;-59
2023/03/27 00:50:51;;;;;;;0.50;0.50;;;;;;;6.64;69.08;96182.88;4987059;28;20117;-56
2023/03/27 00:53:25;;;;;;;0.50;0.50;;;;;;;6.56;70.12;96175.66;5001785;28;20102;-60
2023/03/27 00:55:55;;;;;;;0.60;0.60;;;;;;;6.52;69.65;96152.81;5001616;28;20082;-55
2023/03/27 00:58:27;;;;;;;0.50;0.50;;;;;;;6.63;70.23;96175.00;4986591;28;20577;-60
2023/03/27 01:00:55;;;;;;;0.60;0.60;;;;;;;6.64;69.45;96171.88;4986387;28;20054;-56
2023/03/27 01:03:26;;;;;;;0.50;0.50;;;;;;;6.47;70.71;96161.34;4986582;28;20524;-59
2023/03/27 01:05:55;;;;;;;0.60;0.60;;;;;;;6.50;70.14;96160.63;4986445;28;20066;-56
2023/03/27 01:08:23;;;;;;;0.52;0.52;;;;;;;6.66;70.73;96160.50;4986673;28;20058;-55
2023/03/27 01:10:57;;;;;;;0.50;0.50;;;;;;;6.48;71.25;96140.16;4986096;28;20054;-55
2023/03/27 01:13:35;;;;;;;0.47;0.47;;;;;;;6.61;71.76;96147.84;4986454;28;20058;-55
2023/03/27 01:16:16;;;;;;;0.50;0.50;;;;;;;6.51;70.90;96145.72;4986246;28;20140;-56
2023/03/27 01:19:03;;;;;;;0.52;0.52;;;;;;;6.46;71.08;96137.78;4986210;28;20058;-60
2023/03/27 01:21:42;;;;;;;0.50;0.50;;;;;;;6.40;72.20;96133.75;4986603;28;20058;-56
2023/03/27 01:24:13;;;;;;;0.50;0.50;;;;;;;6.47;71.48;96139.34;4985087;28;20128;-59
2023/03/27 01:27:17;;;;;;;0.50;0.50;;;;;;;6.48;71.84;96124.44;4986110;28;20083;-55
2023/03/27 01:29:52;;;;;;;0.60;0.60;;;;;;;6.37;72.16;96117.94;4985137;28;20092;-60
2023/03/27 01:32:30;;;;;;;0.50;0.50;;;;;;;6.43;73.29;96121.19;4986349;28;20058;-56
2023/03/27 01:35:24;;;;;;;0.50;0.50;;;;;;;6.51;72.62;96120.97;4986316;28;20074;-55
2023/03/27 01:38:00;;;;;;;;;;;;;;;6.49;71.81;96115.03;4986490;28;20093;-55
2023/03/27 01:40:54;;;;;;;0.50;0.50;;;;;;;6.27;72.81;96112.25;4984429;28;19929;-58
2023/03/27 01:44:03;;;;;;;0.50;0.50;;;;;;;6.35;71.59;96114.78;4981318;28;20077;-59
2023/03/27 01:46:34;;;;;;;0.50;0.50;;;;;;;6.13;73.08;96118.31;4944098;29;20051;-56
2023/03/27 01:49:32;;;;;;;0.50;0.50;;;;;;;6.16;73.43;96106.56;4980902;28;20141;-55
2023/03/27 01:52:03;;;;;;;0.50;0.50;;;;;;;6.19;72.51;96105.84;4980227;28;20128;-59
2023/03/27 01:54:37;;;;;;;0.50;0.50;;;;;;;6.17;72.74;96113.66;4986205;28;20108;-55
2023/03/27 01:57:07;;;;;;;0.50;0.50;;;;;;;6.16;72.74;96106.56;4985219;28;20112;-55
2023/03/27 01:59:41;;;;;;;0.50;0.50;;;;;;;6.09;73.04;96106.44;4986189;28;20057;-55
2023/03/27 02:02:17;;;;;;;0.50;0.50;;;;;;;6.03;73.10;96096.91;4981379;28;20058;-54
2023/03/27 02:05:00;;;;;;;0.47;0.47;;;;;;;5.47;73.51;96018.88;4985904;28;20205;-55
2023/03/27 02:07:44;;;;;;;0.50;0.50;;;;;;;5.98;74.60;96095.25;4985827;28;20138;-55
2023/03/27 02:10:18;;;;;;;0.50;0.50;;;;;;;5.86;73.45;96091.88;4985119;28;20464;-56
2023/03/27 02:12:53;;;;;;;0.50;0.50;;;;;;;5.83;72.85;96081.59;4985151;28;20046;-56
2023/03/27 02:15:30;;;;;;;0.57;0.57;;;;;;;5.07;72.95;95980.00;4984104;28;20050;-55
2023/03/27 02:18:05;;;;;;;0.57;0.57;;;;;;;5.71;73.79;96084.44;4985407;28;20493;-58
2023/03/27 02:20:33;;;;;;;0.40;0.40;;;;;;;5.63;73.70;96072.53;4985348;28;20691;-57
2023/03/27 02:23:00;;;;;;;0.50;0.50;;;;;;;5.55;75.74;96075.50;4985428;28;20066;-56
2023/03/27 02:25:31;;;;;;;0.50;0.50;;;;;;;5.27;75.79;96030.97;4985140;28;20046;-55
2023/03/27 02:28:13;;;;;;;0.50;0.50;;;;;;;5.62;76.47;96065.47;4985445;28;20058;-55
2023/03/27 02:31:17;;;;;;;0.50;0.50;;;;;;;5.63;77.11;96060.75;4984880;28;20094;-58
2023/03/27 02:34:11;;;;;;;0.50;0.50;;;;;;;5.63;77.29;96060.75;4984292;28;20145;-59
2023/03/27 02:36:49;;;;;;;0.50;0.50;;;;;;;5.59;75.60;96060.69;4983414;28;20149;-59
2023/03/27 02:39:29;;;;;;;0.50;0.50;;;;;;;5.56;75.09;96055.94;4985038;28;20497;-59
2023/03/27 02:42:19;;;;;;;0.50;0.50;;;;;;;5.48;75.68;96064.38;4984946;28;20061;-59
2023/03/27 02:44:57;;;;;;;0.45;0.45;;;;;;;5.49;76.39;96060.47;4985341;28;20046;-55
2023/03/27 02:47:29;;;;;;;0.50;0.50;;;;;;;5.53;77.92;96051.13;4985653;28;20244;-55
2023/03/27 02:50:05;;;;;;;0.40;0.40;;;;;;;5.66;76.30;96049.84;4985107;28;20054;-57
2023/03/27 02:52:38;;;;;;;0.50;0.50;;;;;;;2.70;75.35;95569.88;4985014;28;20058;-56
2023/03/27 02:55:11;;;;;;;;;;;;;;;5.55;76.35;96042.53;4985039;28;20077;-60
2023/03/27 02:57:38;;;;;;;0.50;0.50;;;;;;;5.33;77.96;96040.50;4999569;28;19976;-55
2023/03/27 03:00:19;;;;;;;0.40;0.40;;;;;;;5.44;77.54;96036.03;4984839;28;20050;-55
2023/03/27 03:02:47;;;;;;;0.50;0.50;;;;;;;5.12;77.54;96012.66;4984540;28;20118;-56
2023/03/27 03:05:20;;;;;;;0.50;0.50;;;;;;;4.90;78.47;95963.97;4983489;28;20069;-60
2023/03/27 03:07:48;;;;;;;0.50;0.50;;;;;;;4.99;77.27;95942.59;4985007;28;20093;-59
2023/03/27 03:10:15;;;;;;;0.50;0.50;;;;;;;5.49;76.95;96017.31;4984585;28;20062;-57
2023/03/27 03:12:42;;;;;;;0.50;0.50;;;;;;;5.45;77.19;96032.16;4984433;28;20544;-57
2023/03/27 03:15:09;;;;;;;0.50;0.50;;;;;;;5.25;77.24;95992.13;4976525;28;20128;-59
2023/03/27 03:17:36;;;;;;;0.50;0.50;;;;;;;5.00;77.28;95960.63;4985125;28;20873;-55
2023/03/27 03:20:04;;;;;;;0.50;0.50;;;;;;;5.49;76.10;96039.31;4985273;28;20077;-56
2023/03/27 03:22:31;;;;;;;0.50;0.50;;;;;;;5.48;75.65;96020.44;4989074;28;20081;-55
2023/03/27 03:24:57;;;;;;;0.50;0.50;;;;;;;5.26;77.14;95960.78;4987635;28;20486;-59
2023/03/27 03:27:24;;;;;;;0.50;0.50;;;;;;;5.59;76.88;96015.94;4987438;28;20497;-56
2023/03/27 03:29:51;;;;;;;0.50;0.50;;;;;;;5.68;76.33;96013.75;4988642;28;20050;-56
2023/03/27 03:32:18;;;;;;;0.50;0.50;;;;;;;5.67;74.56;96017.69;4988203;28;20540;-58
2023/03/27 03:34:47;;;;;;;0.43;0.43;;;;;;;5.65;74.78;96025.47;4988489;28;20047;-56
2023/03/27 03:37:14;;;;;;;0.50;0.50;;;;;;;5.54;75.88;95991.53;4988605;28;20058;-59
2023/03/27 03:39:41;;;;;;;0.50;0.50;;;;;;;4.93;75.93;95850.75;4987003;28;20055;-56
2023/03/27 03:42:08;;;;;;;0.45;0.45;;;;;;;5.07;76.16;95890.25;4988345;28;20054;-56
2023/03/27 03:44:47;;;;;;;0.50;0.50;;;;;;;5.68;76.43;95989.03;4988003;28;20136;-55
2023/03/27 03:47:15;;;;;;;0.50;0.50;;;;;;;4.96;76.96;95913.13;4986982;28;20634;-59
2023/03/27 03:49:42;;;;;;;0.50;0.50;;;;;;;4.95;76.61;95898.59;4987841;28;20092;-55
2023/03/27 03:52:08;;;;;;;0.50;0.50;;;;;;;5.57;77.56;95988.03;4987896;28;20565;-59
2023/03/27 03:54:37;;;;;;;0.50;0.50;;;;;;;4.96;77.66;95878.25;4987889;28;20264;-56
2023/03/27 03:57:04;;;;;;;0.50;0.50;;;;;;;5.74;76.38;95987.56;4987940;28;20058;-56
2023/03/27 03:59:31;;;;;;;0.50;0.50;;;;;;;5.77;75.07;95992.38;4987565;28;20210;-59
2023/03/27 04:01:57;;;;;;;0.50;0.50;;;;;;;5.67;76.31;95990.19;4987839;28;20537;-55
2023/03/27 04:04:24;;;;;;;0.50;0.50;;;;;;;5.69;76.15;95993.38;4987619;28;20056;-55
2023/03/27 04:06:51;;;;;;;0.50;0.50;;;;;;;5.58;76.10;95995.91;4988017;28;20116;-55
2023/03/27 04:09:18;;;;;;;0.50;0.50;;;;;;;5.38;76.25;95979.81;4986144;28;20069;-59
2023/03/27 04:11:45;;;;;;;0.50;0.50;;;;;;;5.39;76.21;96000.66;4986667;28;20498;-54
2023/03/27 04:14:12;;;;;;;0.50;0.50;;;;;;;4.84;76.78;95925.03;4987641;28;20046;-54
2023/03/27 04:16:39;;;;;;;0.47;0.47;;;;;;;5.11;77.71;95983.59;4986730;28;20089;-58
2023/03/27 04:19:06;;;;;;;0.50;0.50;;;;;;;5.26;77.59;96076.06;4985003;28;20069;-55
2023/03/27 04:21:32;;;;;;;0.50;0.50;;;;;;;4.31;78.26;95843.63;4985063;28;20533;-55
2023/03/27 04:24:01;;;;;;;0.50;0.50;;;;;;;5.29;79.59;95991.06;4986548;28;20112;-58
2023/03/27 04:26:28;;;;;;;0.50;0.50;;;;;;;5.30;79.90;95986.34;4986560;28;20490;-60
2023/03/27 04:28:55;;;;;;;0.50;0.50;;;;;;;5.26;79.75;95969.00;4984649;28;20137;-55
2023/03/27 04:31:22;;;;;;;0.50;0.50;;;;;;;5.26;79.99;95958.84;4985336;28;20054;-55
2023/03/27 04:33:50;;;;;;;0.50;0.50;;;;;;;5.30;79.40;95964.38;4985262;28;20054;-57
2023/03/27 04:36:17;;;;;;;0.50;0.50;;;;;;;4.81;79.35;95906.56;4987440;28;20145;-58
2023/03/27 04:38:46;;;;;;;0.50;0.50;;;;;;;5.38;79.63;95957.88;4987139;28;20080;-55
2023/03/27 04:41:13;;;;;;;0.40;0.40;;;;;;;5.60;79.08;95984.56;4987079;28;20050;-56
2023/03/27 04:43:40;;;;;;;0.40;0.40;;;;;;;5.69;78.37;95974.16;4985298;28;20889;-56
2023/03/27 04:46:07;;;;;;;0.50;0.50;;;;;;;5.51;78.24;95943.63;4985877;28;20084;-57
2023/03/27 04:48:37;;;;;;;0.50;0.50;;;;;;;5.69;77.75;95974.16;4986920;28;20054;-55
2023/03/27 04:51:05;;;;;;;0.50;0.50;;;;;;;5.69;77.51;95965.91;4986707;28;20138;-57
2023/03/27 04:53:34;;;;;;;0.50;0.50;;;;;;;5.76;76.13;95977.03;4976841;28;20042;-56
2023/03/27 04:56:03;;;;;;;0.50;0.50;;;;;;;5.83;76.81;95972.47;4984047;28;20117;-58
2023/03/27 04:58:29;;;;;;;0.50;0.50;;;;;;;5.84;75.98;95951.28;4985025;28;20526;-56
2023/03/27 05:00:56;;;;;;;0.50;0.50;;;;;;;5.92;75.50;95974.97;4985254;28;20062;-59
2023/03/27 05:03:24;;;;;;;0.50;0.50;;;;;;;6.05;75.92;95968.16;4985544;28;20525;-56
2023/03/27 05:05:52;;;;;;;0.50;0.50;;;;;;;6.14;74.45;95976.94;4986274;28;20124;-59
2023/03/27 05:08:19;;;;;;;0.60;0.60;;;;;;;6.30;74.81;95974.03;4986354;28;20050;-59
2023/03/27 05:10:45;;;;;;;0.50;0.50;;;;;;;6.57;74.09;95957.19;4984758;28;20057;-57
2023/03/27 05:13:12;;;;;;;0.50;0.50;;;;;;;6.67;73.46;95970.28;4985497;28;20985;-60
2023/03/27 05:15:39;;;;;;;0.52;0.52;;;;;;;6.41;72.57;95887.78;4986310;28;20054;-56
2023/03/27 05:18:07;;;;;;;0.60;0.60;;;;;;;6.89;72.06;95952.91;4985206;28;20062;-59
2023/03/27 05:20:35;;;;;;;0.60;0.60;;;;;;;7.02;71.57;95956.22;4986544;28;20844;-60
2023/03/27 05:23:01;;;;;;;0.60;0.60;;;;;;;6.44;72.05;95837.53;4986724;28;20055;-55
2023/03/27 05:25:29;;;;;;;0.60;0.60;;;;;;;7.37;72.90;95951.94;4986337;28;20528;-56
2023/03/27 05:27:56;;;;;;;0.60;0.60;;;;;;;7.56;72.36;95967.50;4984947;28;20057;-59
2023/03/27 05:30:25;;;;;;;0.55;0.55;;;;;;;7.51;71.39;95901.72;4986006;28;20069;-60
2023/03/27 05:32:52;;;;;;;0.60;0.60;;;;;;;7.98;70.60;95942.34;4986187;28;20054;-56
2023/03/27 05:35:22;;;;;;;0.60;0.60;;;;;;;8.31;69.24;95934.78;4984284;28;20065;-59
2023/03/27 05:37:52;;;;;;;0.68;0.68;;;;;;;8.02;68.50;95832.84;4986077;28;20141;-56
2023/03/27 05:40:21;;;;;;;0.70;0.70;;;;;;;8.92;65.08;95920.97;4985540;28;20066;-57
2023/03/27 05:42:50;;;;;;;0.70;0.70;;;;;;;9.12;65.33;95905.66;4986077;28;20046;-59
2023/03/27 05:45:17;;;;;;;0.70;0.70;;;;;;;8.78;62.70;95826.22;4984563;28;20081;-60
2023/03/27 05:47:55;;;;;;;0.80;0.80;;;;;;;9.48;62.83;95914.88;4986154;28;20086;-60
2023/03/27 05:50:25;;;;;;;0.77;0.77;;;;;;;9.59;62.20;95910.16;4985831;28;20058;-57
2023/03/27 05:52:56;;;;;;;0.80;0.80;;;;;;;9.32;61.03;95845.34;4983854;28;20124;-61
2023/03/27 05:55:24;;;;;;;0.80;0.80;;;;;;;10.21;60.10;95918.97;4984123;28;20118;-55
2023/03/27 05:57:53;;;;;;;0.88;0.88;;;;;;;10.25;60.07;95892.88;4985408;28;20054;-56
2023/03/27 06:00:24;;;;;;;0.82;0.82;;;;;;;10.10;61.10;95841.47;4984934;28;20054;-61
2023/03/27 06:02:56;;;;;;;0.90;0.90;;;;;;;9.40;60.84;95780.63;4984744;28;20449;-57
2023/03/27 06:05:25;;;;;;;0.80;0.80;;;;;;;10.47;59.93;95890.88;4972338;28;20572;-59
2023/03/27 06:07:52;;;;;;;0.80;0.80;;;;;;;9.91;59.64;95778.25;4984274;28;20050;-58
2023/03/27 06:10:22;;;;;;;0.90;0.90;;;;;;;10.38;59.96;95869.16;4984769;28;20050;-55
2023/03/27 06:12:57;;;;;;;0.80;0.80;;;;;;;10.07;59.78;95813.81;4983192;28;20567;-57
2023/03/27 06:15:24;;;;;;;0.80;0.80;;;;;;;10.26;59.44;95839.09;4974568;28;20055;-59
2023/03/27 06:17:51;;;;;;;0.90;0.90;;;;;;;10.93;58.56;95888.00;4983437;28;20888;-61
2023/03/27 06:20:20;;;;;;;0.90;0.90;;;;;;;11.17;57.49;95887.13;4981159;28;20061;-59
2023/03/27 06:22:48;;;;;;;0.90;0.90;;;;;;;10.97;57.21;95850.78;4980162;28;20055;-63
2023/03/27 06:25:16;;;;;;;1.00;1.00;;;;;;;11.27;57.34;95886.31;4963960;28;20051;-61
2023/03/27 06:27:45;;;;;;;0.90;0.90;;;;;;;11.36;56.75;95858.94;4965669;28;20054;-58
2023/03/27 06:30:16;;;;;;;1.00;1.00;;;;;;;10.53;59.98;95859.63;4981516;28;20058;-57
2023/03/27 06:32:44;;;;;;;0.90;0.90;;;;;;;10.84;59.97;95869.06;4976612;28;20046;-59
2023/03/27 06:35:13;;;;;;;0.90;0.90;;;;;;;10.89;59.76;95848.44;4984452;28;20517;-55
2023/03/27 06:37:41;;;;;;;1.00;1.00;;;;;;;10.99;57.38;95858.69;4972988;28;20419;-57
2023/03/27 06:40:09;;;;;;;0.90;0.90;;;;;;;11.09;58.31;95857.88;4965148;28;20061;-55
2023/03/27 06:42:37;;;;;;;0.90;0.90;;;;;;;11.09;62.04;95858.66;4965437;28;20051;-56
2023/03/27 06:45:04;;;;;;;0.90;0.90;;;;;;;10.33;63.78;95832.78;4964805;28;20212;-57
2023/03/27 06:47:31;;;;;;;0.90;0.90;;;;;;;10.87;63.23;95895.16;4983648;28;20567;-59
2023/03/27 06:50:06;;;;;;;0.90;0.90;;;;;;;10.79;59.28;95843.72;4980915;28;20060;-57
2023/03/27 06:52:32;;;;;;;0.90;0.90;;;;;;;10.91;58.68;95857.16;4966676;28;20058;-56
2023/03/27 06:54:59;;;;;;;0.90;0.90;;;;;;;10.97;57.80;95850.00;4975177;28;20078;-55
2023/03/27 06:57:26;;;;;;;0.90;0.90;;;;;;;10.89;58.34;95842.91;4984459;28;20054;-58
2023/03/27 06:59:52;;;;;;;0.90;0.90;;;;;;;11.10;57.80;95820.63;4983572;28;20058;-60
2023/03/27 07:02:19;;;;;;;1.00;1.00;;;;;;;11.23;58.10;95819.00;4980135;28;20090;-57
2023/03/27 07:04:46;;;;;;;0.90;0.90;;;;;;;11.05;57.58;95758.13;4980996;28;20059;-59
2023/03/27 07:07:29;;;;;;;0.98;0.98;;;;;;;11.53;57.39;95828.31;4965072;28;20596;-58
2023/03/27 07:09:56;;;;;;;0.90;0.90;;;;;;;11.69;57.45;95825.09;4973565;28;20054;-60
2023/03/27 07:12:22;;;;;;;0.90;0.90;;;;;;;11.85;56.67;95822.59;4983578;28;20112;-58
2023/03/27 07:14:50;;;;;;;0.80;0.80;;;;;;;10.24;56.45;95556.44;4981194;28;20050;-62
2023/03/27 07:17:17;;;;;;;1.00;1.00;;;;;;;12.17;56.14;95806.47;4967731;28;20051;-57
2023/03/27 07:19:45;;;;;;;1.00;1.00;;;;;;;11.48;55.92;95656.03;4978390;28;20132;-60
2023/03/27 07:22:11;;;;;;;0.90;0.90;;;;;;;12.36;54.77;95708.66;4970634;28;20113;-57
2023/03/27 07:24:39;;;;;;;1.10;1.10;;;;;;;13.02;54.22;95782.13;4975719;28;20129;-60
2023/03/27 07:27:06;;;;;;;1.00;1.00;;;;;;;12.73;54.58;95772.53;4978984;28;20509;-60
2023/03/27 07:29:35;;;;;;;1.02;1.02;;;;;;;12.63;54.86;95756.75;4975238;28;20486;-57
2023/03/27 07:32:03;;;;;;;1.00;1.00;;;;;;;12.61;55.09;95775.84;4966393;28;20055;-57
2023/03/27 07:34:34;;;;;;;1.10;1.10;;;;;;;12.88;53.91;95751.69;4964478;28;20149;-56
2023/03/27 07:37:01;;;;;;;0.95;0.95;;;;;;;12.88;54.31;95735.00;4964124;28;20051;-56
2023/03/27 07:39:27;;;;;;;1.10;1.10;;;;;;;12.73;55.68;95755.06;4964247;28;20419;-57
2023/03/27 07:41:54;;;;;;;1.20;1.20;;;;;;;12.86;55.75;95731.88;4984745;28;20070;-61
2023/03/27 07:44:21;;;;;;;1.00;1.00;;;;;;;11.93;57.46;95674.28;4984400;28;20058;-56
2023/03/27 07:46:50;;;;;;;1.00;1.00;;;;;;;12.87;56.32;95694.53;4979753;28;20057;-55
2023/03/27 07:49:18;;;;;;;1.20;1.20;;;;;;;13.33;55.54;95683.56;4963921;28;20061;-57
2023/03/27 07:52:05;;;;;;;1.10;1.10;;;;;;;11.20;54.36;95313.44;4964371;28;20127;-61
2023/03/27 07:54:32;;;;;;;1.10;1.10;;;;;;;13.45;54.14;95663.50;4964009;28;20105;-57
2023/03/27 07:56:59;;;;;;;1.20;1.20;;;;;;;13.08;56.35;95683.16;4984387;28;20506;-58
2023/03/27 07:59:26;;;;;;;1.20;1.20;;;;;;;13.54;55.85;95699.94;4971390;28;20700;-56
2023/03/27 08:01:54;;;;;;;1.00;1.00;;;;;;;12.23;57.86;95621.59;4964877;28;20162;-57
2023/03/27 08:04:21;;;;;;;1.00;1.00;;;;;;;12.91;58.29;95686.16;4978101;28;20498;-58
2023/03/27 08:06:50;;;;;;;1.20;1.20;;;;;;;13.34;57.28;95684.38;5002111;28;20046;-57
2023/03/27 08:09:16;;;;;;;0.90;0.90;;;;;;;12.98;58.86;95678.50;4992581;28;20101;-57
2023/03/27 08:11:43;;;;;;;1.10;1.10;;;;;;;12.88;59.13;95664.78;4973398;28;20132;-59
2023/03/27 08:14:10;;;;;;;1.10;1.10;;;;;;;13.14;60.11;95678.69;4981168;28;20133;-57
2023/03/27 08:16:36;;;;;;;1.10;1.10;;;;;;;13.68;59.44;95671.06;4980812;28;20077;-58
2023/03/27 08:19:05;;;;;;;1.10;1.10;;;;;;;13.40;61.32;95663.97;4982702;28;20137;-57
2023/03/27 08:21:33;;;;;;;1.10;1.10;;;;;;;12.68;63.44;95625.75;4982264;28;20119;-59
2023/03/27 08:24:01;;;;;;;1.10;1.10;;;;;;;13.31;62.73;95651.81;4995743;28;20145;-59
2023/03/27 08:26:28;;;;;;;1.20;1.20;;;;;;;13.49;62.19;95658.69;4967682;28;20126;-59
2023/03/27 08:28:55;;;;;;;1.10;1.10;;;;;;;13.75;61.42;95642.34;4975786;28;20077;-56
2023/03/27 08:31:22;;;;;;;1.20;1.20;;;;;;;13.83;61.49;95638.22;4966627;28;20105;-60
2023/03/27 08:33:49;;;;;;;1.15;1.15;;;;;;;14.36;59.26;95638.00;4969749;28;20125;-59
2023/03/27 08:36:18;;;;;;;1.20;1.20;;;;;;;14.74;59.72;95628.03;4981292;28;20066;-56
2023/03/27 08:38:45;;;;;;;1.20;1.20;;;;;;;14.17;59.65;95641.53;4977862;28;20077;-55
2023/03/27 08:41:37;;;;;;;1.10;1.10;;;;;;;13.96;60.91;95569.59;4986608;28;20082;-58
2023/03/27 08:44:09;;;;;;;1.20;1.20;;;;;;;14.84;58.39;95601.94;4985699;28;20081;-59
2023/03/27 08:46:41;;;;;;;1.30;1.30;;;;;;;14.94;58.22;95609.25;4987085;28;20050;-59
2023/03/27 08:49:19;;;;;;;1.40;1.40;;;;;;;15.59;56.73;95599.72;4986734;28;20138;-57
2023/03/27 08:51:52;;;;;;;1.60;1.60;;;;;;;15.96;55.03;95554.47;4967631;28;20463;-56
2023/03/27 08:54:22;;;;;;;1.50;1.50;;;;;;;15.71;55.14;95582.25;4972591;28;20517;-55
2023/03/27 08:56:49;;;;;;;1.50;1.50;;;;;;;15.40;57.15;95583.88;4986476;28;20093;-56
2023/03/27 08:59:20;;;;;;;1.60;1.60;;;;;;;16.24;55.05;95587.19;4976267;28;20054;-55
2023/03/27 09:02:09;;;;;;;1.60;1.60;;;;;;;15.86;55.61;95588.25;4985460;28;20132;-59
2023/03/27 09:04:36;;;;;;;1.65;1.65;;;;;;;16.18;55.05;95583.38;4977485;28;20506;-55
2023/03/27 09:07:12;;;;;;;1.70;1.70;;;;;;;16.23;54.63;95512.97;4980811;28;20125;-56
2023/03/27 09:10:00;;;;;;;1.70;1.70;;;;;;;16.97;53.50;95566.66;4966894;28;20463;-54
2023/03/27 09:12:30;;;;;;;1.60;1.60;;;;;;;16.92;53.76;95563.63;4977553;28;20134;-56
2023/03/27 09:15:20;;;;;;;1.50;1.50;;;;;;;16.82;54.34;95561.94;4971926;28;20510;-55
2023/03/27 09:18:05;;;;;;;1.60;1.60;;;;;;;16.59;55.22;95558.25;4972029;28;20149;-57
2023/03/27 09:20:39;;;;;;;1.60;1.60;;;;;;;16.44;54.76;95490.00;4966605;28;20129;-54
2023/03/27 09:23:30;;;;;;;1.73;1.73;;;;;;;16.59;55.17;95547.06;4966916;28;20078;-59
2023/03/27 09:26:00;;;;;;;1.60;1.60;;;;;;;16.14;56.67;95543.56;4965724;28;20533;-57
2023/03/27 09:28:36;;;;;;;1.85;1.85;;;;;;;16.54;55.86;95542.00;4980987;28;20510;-56
2023/03/27 09:31:23;;;;;;;1.55;1.55;;;;;;;16.62;55.67;95534.19;4966987;28;20458;-57
2023/03/27 09:33:51;;;;;;;1.70;1.70;;;;;;;15.04;58.73;95482.75;4973339;28;20057;-57
2023/03/27 09:36:18;;;;;;;1.60;1.60;;;;;;;15.39;59.21;95518.13;4967790;28;20118;-60
2023/03/27 09:38:50;;;;;;;1.40;1.40;;;;;;;15.44;58.16;95431.13;4966317;28;20055;-61
2023/03/27 09:41:21;;;;;;;1.55;1.55;;;;;;;16.08;58.33;95516.63;4966623;28;20442;-61
2023/03/27 09:44:19;;;;;;;1.60;1.60;;;;;;;16.37;57.72;95506.97;4980518;28;20419;-56
2023/03/27 09:46:51;;;;;;;1.50;1.50;;;;;;;16.74;57.22;95507.47;4962886;28;20146;-57
2023/03/27 09:49:19;;;;;;;1.67;1.67;;;;;;;17.25;55.51;95497.78;4965848;28;20050;-61
2023/03/27 09:51:51;;;;;;;1.70;1.70;;;;;;;17.64;55.12;95491.66;4975119;28;20048;-58
2023/03/27 09:54:20;;;;;;;1.70;1.70;;;;;;;17.20;56.08;95485.13;4985457;28;20088;-61
2023/03/27 09:57:10;;;;;;;1.50;1.50;;;;;;;16.92;57.60;95482.50;4984030;28;20146;-57
2023/03/27 09:59:50;;;;;;;1.80;1.80;;;;;;;16.96;56.55;95458.00;4985229;28;20065;-56
2023/03/27 10:02:29;;;;;;;1.63;1.63;;;;;;;16.74;56.92;95434.78;4985038;28;20101;-57
2023/03/27 10:04:58;;;;;;;1.70;1.70;;;;;;;16.64;58.10;95431.84;4985851;28;20100;-59
2023/03/27 10:07:25;;;;;;;1.65;1.65;;;;;;;16.23;60.16;95417.97;4964527;28;20177;-57
2023/03/27 10:13:33;;;;;;;1.67;1.67;;;;;;;16.80;59.04;95405.00;4975849;28;20069;-59
2023/03/27 10:16:22;;;;;;;1.52;1.52;;;;;;;16.64;60.04;95431.09;4999406;28;21421;-61
2023/03/27 10:18:53;;;;;;;1.90;1.90;;;;;;;16.38;59.10;95373.59;4982153;28;20054;-59
2023/03/27 10:21:37;;;;;;;1.60;1.60;;;;;;;16.47;60.61;95426.84;4984959;28;20054;-59
2023/03/27 10:24:18;;;;;;;1.85;1.85;;;;;;;17.41;59.37;95406.03;4976674;28;20113;-61
2023/03/27 10:26:47;;;;;;;1.55;1.55;;;;;;;17.65;58.20;95398.00;4963833;28;20113;-58
2023/03/27 10:29:25;;;;;;;1.73;1.73;;;;;;;17.08;59.63;95370.47;4967292;28;20051;-60
2023/03/27 10:31:54;;;;;;;1.48;1.48;;;;;;;17.99;57.96;95395.09;4976998;28;20092;-60
2023/03/27 10:34:33;;;;;;;1.80;1.80;;;;;;;18.30;56.57;95376.28;4983180;28;20112;-57
2023/03/27 10:37:02;;;;;;;1.50;1.50;;;;;;;18.10;56.46;95370.25;4983235;28;20050;-60
2023/03/27 10:39:33;;;;;;;1.60;1.60;;;;;;;17.10;58.71;95324.03;4984533;28;20526;-61
2023/03/27 10:42:08;;;;;;;1.65;1.65;;;;;;;17.43;59.01;95325.19;4984513;28;20481;-57
2023/03/27 10:44:37;;;;;;;1.70;1.70;;;;;;;17.84;57.93;95354.88;4984926;28;20504;-57
2023/03/27 10:47:13;;;;;;;1.60;1.60;;;;;;;17.44;59.00;95345.56;4982981;28;20485;-61
2023/03/27 10:49:46;;;;;;;1.80;1.80;;;;;;;17.44;59.77;95348.34;4985048;28;20081;-61
2023/03/27 10:52:27;;;;;;;1.70;1.70;;;;;;;16.78;62.32;95345.94;4983562;28;20577;-57
2023/03/27 10:55:00;;;;;;;1.50;1.50;;;;;;;17.13;61.79;95333.50;4984433;28;20145;-57
2023/03/27 10:57:36;;;;;;;1.60;1.60;;;;;;;17.38;60.96;95339.78;4984725;28;20181;-59
2023/03/27 11:00:21;;;;;;;1.60;1.60;;;;;;;17.80;59.79;95320.59;4983936;28;20585;-57
2023/03/27 11:02:51;;;;;;;1.88;1.88;;;;;;;17.59;60.48;95310.25;4984260;28;20264;-58
2023/03/27 11:05:26;;;;;;;1.75;1.75;;;;;;;17.24;60.87;95272.34;4982835;28;20058;-57
2023/03/27 11:08:19;;;;;;;1.60;1.60;;;;;;;17.13;62.07;95281.16;4984607;28;20445;-57
2023/03/27 11:10:46;;;;;;;1.95;1.95;;;;;;;17.72;59.58;95246.53;4984128;28;20492;-61
2023/03/27 11:13:22;;;;;;;1.95;1.95;;;;;;;18.21;58.84;95266.16;4984325;28;20085;-56
2023/03/27 11:16:07;;;;;;;1.80;1.80;;;;;;;18.70;56.92;95259.25;4983778;28;20086;-56
2023/03/27 11:18:39;;;;;;;1.98;1.98;;;;;;;19.00;55.67;95207.81;4982832;28;20150;-60
2023/03/27 11:21:12;;;;;;;2.10;2.10;;;;;;;19.84;53.15;95238.84;4984292;28;20062;-56
2023/03/27 11:23:48;;;;;;;1.93;1.93;;;;;;;19.47;54.68;95219.28;4984304;28;20106;-61
2023/03/27 11:26:17;;;;;;;2.00;2.00;;;;;;;19.89;52.53;95193.22;4982710;28;20054;-56
2023/03/27 11:28:51;;;;;;;1.80;1.80;;;;;;;19.38;53.51;95202.47;4984470;28;20263;-56
2023/03/27 11:31:26;;;;;;;2.15;2.15;;;;;;;19.85;52.33;95190.59;4982434;28;20055;-57
2023/03/27 11:34:04;;;;;;;2.13;2.13;;;;;;;20.15;51.42;95191.56;4983933;28;20086;-57
2023/03/27 11:36:48;;;;;;;2.03;2.03;;;;;;;20.44;50.13;95180.41;4984352;28;20120;-59
2023/03/27 11:39:21;;;;;;;2.10;2.10;;;;;;;20.47;48.96;95107.09;4983925;28;20050;-60
2023/03/27 11:41:55;;;;;;;2.10;2.10;;;;;;;20.83;49.37;95156.69;4982413;28;20061;-60
2023/03/27 11:44:22;;;;;;;;;;;;;;;20.90;49.95;95167.53;4988338;28;20137;-59
2023/03/27 11:46:55;;;;;;;2.30;2.30;;;;;;;18.99;49.93;94855.50;4986451;28;19945;-57
2023/03/27 11:49:58;;;;;;;2.30;2.28;;;;;;;21.14;48.93;95151.38;4986661;28;20406;-60
2023/03/27 11:52:30;;;;;;;2.50;2.40;;;;;;;21.04;48.60;95144.28;4970286;28;20150;-57
2023/03/27 11:55:05;;;;;;;2.00;2.00;;;;;;;21.28;48.79;95124.47;4973021;28;20134;-59
2023/03/27 11:57:58;;;;;;;2.20;2.20;;;;;;;21.63;48.20;95112.00;4968116;28;20047;-59
2023/03/27 12:00:38;;;;;;;2.13;2.13;;;;;;;21.72;47.92;95097.78;4985152;28;20473;-62
2023/03/27 12:03:30;;;;;;;2.15;2.15;;;;;;;21.94;47.05;95089.69;4982288;28;20511;-58
2023/03/27 12:06:00;;;;;;;2.33;2.30;;;;;;;22.03;47.54;95078.28;4985265;28;20142;-62